sensor_id;sensor_type;location;lat;lon;timestamp;P1;durP1;ratioP1;P2;durP2;ratioP2
58647;SDS011;45992;45.920;20.074;2023-02-01T00:00:59;20.57;;;8.40;;
58647;SDS011;45992;45.920;20.074;2023-02-01T00:03:25;12.40;;;8.17;;
58647;SDS011;45992;45.920;20.074;2023-02-01T00:05:58;17.63;;;9.48;;
58647;SDS011;45992;45.920;20.074;2023-02-01T00:08:25;18.23;;;8.48;;
58647;SDS011;45992;45.920;20.074;2023-02-01T00:11:00;17.08;;;9.10;;
58647;SDS011;45992;45.920;20.074;2023-02-01T00:13:30;16.88;;;8.35;;
58647;SDS011;45992;45.920;20.074;2023-02-01T00:18:29;18.77;;;8.13;;
58647;SDS011;45992;45.920;20.074;2023-02-01T00:20:55;20.10;;;10.13;;
58647;SDS011;45992;45.920;20.074;2023-02-01T00:23:22;16.38;;;8.15;;
58647;SDS011;45992;45.920;20.074;2023-02-01T00:25:48;14.17;;;7.70;;
58647;SDS011;45992;45.920;20.074;2023-02-01T00:28:14;14.80;;;8.50;;
58647;SDS011;45992;45.920;20.074;2023-02-01T00:30:40;16.38;;;7.70;;
58647;SDS011;45992;45.920;20.074;2023-02-01T00:33:06;15.20;;;8.10;;
58647;SDS011;45992;45.920;20.074;2023-02-01T00:35:35;15.17;;;8.07;;
58647;SDS011;45992;45.920;20.074;2023-02-01T00:38:02;16.98;;;9.48;;
58647;SDS011;45992;45.920;20.074;2023-02-01T00:40:28;17.05;;;9.60;;
58647;SDS011;45992;45.920;20.074;2023-02-01T00:42:54;16.27;;;9.00;;
58647;SDS011;45992;45.920;20.074;2023-02-01T00:45:22;15.00;;;8.55;;
58647;SDS011;45992;45.920;20.074;2023-02-01T00:47:48;19.30;;;9.20;;
58647;SDS011;45992;45.920;20.074;2023-02-01T00:50:14;15.40;;;8.27;;
58647;SDS011;45992;45.920;20.074;2023-02-01T00:52:41;15.73;;;8.95;;
58647;SDS011;45992;45.920;20.074;2023-02-01T00:55:07;18.10;;;9.23;;
58647;SDS011;45992;45.920;20.074;2023-02-01T00:57:33;16.83;;;9.65;;
58647;SDS011;45992;45.920;20.074;2023-02-01T00:59:59;15.20;;;8.55;;
58647;SDS011;45992;45.920;20.074;2023-02-01T01:02:26;17.92;;;10.25;;
58647;SDS011;45992;45.920;20.074;2023-02-01T01:07:18;17.35;;;9.65;;
58647;SDS011;45992;45.920;20.074;2023-02-01T01:09:45;19.15;;;10.88;;
58647;SDS011;45992;45.920;20.074;2023-02-01T01:12:11;17.08;;;9.90;;
58647;SDS011;45992;45.920;20.074;2023-02-01T01:14:37;15.75;;;10.32;;
58647;SDS011;45992;45.920;20.074;2023-02-01T01:17:03;17.55;;;9.65;;
58647;SDS011;45992;45.920;20.074;2023-02-01T01:19:30;22.33;;;10.23;;
58647;SDS011;45992;45.920;20.074;2023-02-01T01:21:56;18.02;;;11.13;;
58647;SDS011;45992;45.920;20.074;2023-02-01T01:24:22;17.08;;;10.07;;
58647;SDS011;45992;45.920;20.074;2023-02-01T01:26:48;15.35;;;10.38;;
58647;SDS011;45992;45.920;20.074;2023-02-01T01:29:14;17.77;;;11.07;;
58647;SDS011;45992;45.920;20.074;2023-02-01T01:31:40;19.87;;;12.23;;
58647;SDS011;45992;45.920;20.074;2023-02-01T01:34:07;19.13;;;11.27;;
58647;SDS011;45992;45.920;20.074;2023-02-01T01:36:34;18.13;;;9.23;;
58647;SDS011;45992;45.920;20.074;2023-02-01T01:39:00;14.50;;;9.48;;
58647;SDS011;45992;45.920;20.074;2023-02-01T01:41:30;13.98;;;8.43;;
58647;SDS011;45992;45.920;20.074;2023-02-01T01:46:26;16.17;;;9.40;;
58647;SDS011;45992;45.920;20.074;2023-02-01T01:48:55;13.05;;;7.63;;
58647;SDS011;45992;45.920;20.074;2023-02-01T01:51:23;15.75;;;8.93;;
58647;SDS011;45992;45.920;20.074;2023-02-01T01:53:53;13.23;;;8.50;;
58647;SDS011;45992;45.920;20.074;2023-02-01T01:56:22;14.23;;;8.82;;
58647;SDS011;45992;45.920;20.074;2023-02-01T01:58:48;15.15;;;8.82;;
58647;SDS011;45992;45.920;20.074;2023-02-01T02:01:14;12.18;;;7.82;;
58647;SDS011;45992;45.920;20.074;2023-02-01T02:03:42;15.25;;;8.20;;
58647;SDS011;45992;45.920;20.074;2023-02-01T02:06:11;15.07;;;8.25;;
58647;SDS011;45992;45.920;20.074;2023-02-01T02:08:38;14.45;;;7.10;;
58647;SDS011;45992;45.920;20.074;2023-02-01T02:11:05;14.45;;;7.25;;
58647;SDS011;45992;45.920;20.074;2023-02-01T02:13:35;13.48;;;7.10;;
58647;SDS011;45992;45.920;20.074;2023-02-01T02:16:18;14.40;;;7.05;;
58647;SDS011;45992;45.920;20.074;2023-02-01T02:35:20;12.65;;;6.20;;
58647;SDS011;45992;45.920;20.074;2023-02-01T02:38:15;13.38;;;6.43;;
58647;SDS011;45992;45.920;20.074;2023-02-01T02:43:09;9.77;;;6.17;;
58647;SDS011;45992;45.920;20.074;2023-02-01T02:45:59;13.05;;;7.05;;
58647;SDS011;45992;45.920;20.074;2023-02-01T02:49:04;14.15;;;7.28;;
58647;SDS011;45992;45.920;20.074;2023-02-01T02:51:34;14.27;;;7.95;;
58647;SDS011;45992;45.920;20.074;2023-02-01T02:54:25;15.63;;;8.15;;
58647;SDS011;45992;45.920;20.074;2023-02-01T02:57:12;13.32;;;7.88;;
58647;SDS011;45992;45.920;20.074;2023-02-01T02:59:58;15.60;;;9.48;;
58647;SDS011;45992;45.920;20.074;2023-02-01T03:02:44;16.08;;;7.55;;
58647;SDS011;45992;45.920;20.074;2023-02-01T03:05:33;14.35;;;8.73;;
58647;SDS011;45992;45.920;20.074;2023-02-01T03:08:03;14.75;;;9.27;;
58647;SDS011;45992;45.920;20.074;2023-02-01T03:10:44;14.32;;;9.13;;
58647;SDS011;45992;45.920;20.074;2023-02-01T03:13:18;14.45;;;9.63;;
58647;SDS011;45992;45.920;20.074;2023-02-01T03:15:49;13.77;;;7.63;;
58647;SDS011;45992;45.920;20.074;2023-02-01T03:18:19;11.35;;;6.38;;
58647;SDS011;45992;45.920;20.074;2023-02-01T03:20:47;11.70;;;5.90;;
58647;SDS011;45992;45.920;20.074;2023-02-01T03:23:15;11.57;;;5.63;;
58647;SDS011;45992;45.920;20.074;2023-02-01T03:25:42;11.45;;;5.82;;
58647;SDS011;45992;45.920;20.074;2023-02-01T03:28:12;11.23;;;5.53;;
58647;SDS011;45992;45.920;20.074;2023-02-01T03:30:40;15.40;;;6.10;;
58647;SDS011;45992;45.920;20.074;2023-02-01T03:33:09;13.20;;;5.78;;
58647;SDS011;45992;45.920;20.074;2023-02-01T03:46:45;9.82;;;5.32;;
58647;SDS011;45992;45.920;20.074;2023-02-01T03:49:15;12.70;;;5.93;;
58647;SDS011;45992;45.920;20.074;2023-02-01T03:51:43;13.18;;;5.60;;
58647;SDS011;45992;45.920;20.074;2023-02-01T03:54:10;20.63;;;8.40;;
58647;SDS011;45992;45.920;20.074;2023-02-01T03:56:38;19.70;;;10.93;;
58647;SDS011;45992;45.920;20.074;2023-02-01T03:59:06;17.00;;;8.20;;
58647;SDS011;45992;45.920;20.074;2023-02-01T04:01:33;16.60;;;7.20;;
58647;SDS011;45992;45.920;20.074;2023-02-01T04:03:59;14.55;;;6.32;;
58647;SDS011;45992;45.920;20.074;2023-02-01T04:06:25;15.32;;;7.03;;
58647;SDS011;45992;45.920;20.074;2023-02-01T04:08:51;12.70;;;6.82;;
58647;SDS011;45992;45.920;20.074;2023-02-01T04:11:18;13.65;;;7.18;;
58647;SDS011;45992;45.920;20.074;2023-02-01T04:13:44;15.10;;;8.02;;
58647;SDS011;45992;45.920;20.074;2023-02-01T04:16:10;13.00;;;7.03;;
58647;SDS011;45992;45.920;20.074;2023-02-01T04:18:36;14.18;;;8.05;;
58647;SDS011;45992;45.920;20.074;2023-02-01T04:21:03;13.13;;;8.32;;
58647;SDS011;45992;45.920;20.074;2023-02-01T04:23:29;18.70;;;9.38;;
58647;SDS011;45992;45.920;20.074;2023-02-01T04:26:00;20.13;;;9.77;;
58647;SDS011;45992;45.920;20.074;2023-02-01T04:28:27;16.40;;;8.10;;
58647;SDS011;45992;45.920;20.074;2023-02-01T04:30:53;13.25;;;8.30;;
58647;SDS011;45992;45.920;20.074;2023-02-01T04:33:19;15.00;;;8.80;;
58647;SDS011;45992;45.920;20.074;2023-02-01T04:35:45;15.83;;;7.60;;
58647;SDS011;45992;45.920;20.074;2023-02-01T04:38:11;15.73;;;7.60;;
58647;SDS011;45992;45.920;20.074;2023-02-01T04:40:38;16.20;;;9.07;;
58647;SDS011;45992;45.920;20.074;2023-02-01T04:43:04;17.27;;;10.38;;
58647;SDS011;45992;45.920;20.074;2023-02-01T04:45:30;19.52;;;12.15;;
58647;SDS011;45992;45.920;20.074;2023-02-01T04:47:56;20.67;;;12.20;;
58647;SDS011;45992;45.920;20.074;2023-02-01T04:50:22;18.13;;;9.90;;
58647;SDS011;45992;45.920;20.074;2023-02-01T04:52:48;21.43;;;11.87;;
58647;SDS011;45992;45.920;20.074;2023-02-01T04:55:15;21.00;;;10.70;;
58647;SDS011;45992;45.920;20.074;2023-02-01T04:57:41;18.05;;;11.68;;
58647;SDS011;45992;45.920;20.074;2023-02-01T05:00:08;17.03;;;10.27;;
58647;SDS011;45992;45.920;20.074;2023-02-01T05:05:01;19.05;;;10.70;;
58647;SDS011;45992;45.920;20.074;2023-02-01T05:07:27;20.55;;;12.93;;
58647;SDS011;45992;45.920;20.074;2023-02-01T05:09:53;34.50;;;15.30;;
58647;SDS011;45992;45.920;20.074;2023-02-01T05:12:19;25.52;;;13.63;;
58647;SDS011;45992;45.920;20.074;2023-02-01T05:15:05;17.00;;;8.80;;
58647;SDS011;45992;45.920;20.074;2023-02-01T05:17:31;16.17;;;8.95;;
58647;SDS011;45992;45.920;20.074;2023-02-01T05:19:57;17.58;;;9.18;;
58647;SDS011;45992;45.920;20.074;2023-02-01T05:22:23;16.80;;;9.27;;
58647;SDS011;45992;45.920;20.074;2023-02-01T05:24:50;16.40;;;9.55;;
58647;SDS011;45992;45.920;20.074;2023-02-01T05:27:18;13.65;;;8.38;;
58647;SDS011;45992;45.920;20.074;2023-02-01T05:29:45;19.00;;;10.13;;
58647;SDS011;45992;45.920;20.074;2023-02-01T05:32:11;19.93;;;10.70;;
58647;SDS011;45992;45.920;20.074;2023-02-01T05:34:37;17.60;;;9.63;;
58647;SDS011;45992;45.920;20.074;2023-02-01T05:37:03;28.25;;;15.25;;
58647;SDS011;45992;45.920;20.074;2023-02-01T05:39:29;36.50;;;19.15;;
58647;SDS011;45992;45.920;20.074;2023-02-01T05:41:55;31.17;;;16.40;;
58647;SDS011;45992;45.920;20.074;2023-02-01T05:44:22;25.60;;;13.97;;
58647;SDS011;45992;45.920;20.074;2023-02-01T05:46:48;30.35;;;14.52;;
58647;SDS011;45992;45.920;20.074;2023-02-01T05:49:14;25.90;;;13.73;;
58647;SDS011;45992;45.920;20.074;2023-02-01T05:51:40;24.43;;;13.43;;
58647;SDS011;45992;45.920;20.074;2023-02-01T05:54:07;22.83;;;12.70;;
58647;SDS011;45992;45.920;20.074;2023-02-01T05:56:34;19.63;;;11.88;;
58647;SDS011;45992;45.920;20.074;2023-02-01T05:59:00;25.80;;;13.93;;
58647;SDS011;45992;45.920;20.074;2023-02-01T06:01:26;27.40;;;13.35;;
58647;SDS011;45992;45.920;20.074;2023-02-01T06:03:52;26.75;;;14.10;;
58647;SDS011;45992;45.920;20.074;2023-02-01T06:06:18;27.90;;;14.00;;
58647;SDS011;45992;45.920;20.074;2023-02-01T06:08:45;22.90;;;11.70;;
58647;SDS011;45992;45.920;20.074;2023-02-01T06:11:11;26.05;;;14.38;;
58647;SDS011;45992;45.920;20.074;2023-02-01T06:13:38;29.75;;;15.90;;
58647;SDS011;45992;45.920;20.074;2023-02-01T06:16:04;32.50;;;15.57;;
58647;SDS011;45992;45.920;20.074;2023-02-01T06:18:33;40.60;;;20.15;;
58647;SDS011;45992;45.920;20.074;2023-02-01T06:20:59;38.42;;;20.92;;
58647;SDS011;45992;45.920;20.074;2023-02-01T06:23:26;42.92;;;22.75;;
58647;SDS011;45992;45.920;20.074;2023-02-01T06:28:19;27.50;;;17.55;;
58647;SDS011;45992;45.920;20.074;2023-02-01T06:30:45;29.00;;;18.00;;
58647;SDS011;45992;45.920;20.074;2023-02-01T06:33:14;29.70;;;17.13;;
58647;SDS011;45992;45.920;20.074;2023-02-01T06:35:41;32.40;;;16.67;;
58647;SDS011;45992;45.920;20.074;2023-02-01T06:38:09;27.70;;;15.60;;
58647;SDS011;45992;45.920;20.074;2023-02-01T06:40:36;40.78;;;21.20;;
58647;SDS011;45992;45.920;20.074;2023-02-01T06:43:02;39.50;;;21.02;;
58647;SDS011;45992;45.920;20.074;2023-02-01T06:45:29;30.80;;;19.40;;
58647;SDS011;45992;45.920;20.074;2023-02-01T06:47:55;29.73;;;18.60;;
58647;SDS011;45992;45.920;20.074;2023-02-01T06:50:21;25.90;;;15.25;;
58647;SDS011;45992;45.920;20.074;2023-02-01T06:52:48;28.27;;;17.00;;
58647;SDS011;45992;45.920;20.074;2023-02-01T06:55:14;34.07;;;19.80;;
58647;SDS011;45992;45.920;20.074;2023-02-01T06:57:40;37.30;;;20.73;;
58647;SDS011;45992;45.920;20.074;2023-02-01T07:00:06;34.88;;;19.00;;
58647;SDS011;45992;45.920;20.074;2023-02-01T07:02:33;31.88;;;20.27;;
58647;SDS011;45992;45.920;20.074;2023-02-01T07:04:59;38.88;;;20.17;;
58647;SDS011;45992;45.920;20.074;2023-02-01T07:07:25;37.97;;;22.00;;
58647;SDS011;45992;45.920;20.074;2023-02-01T07:09:51;28.52;;;17.05;;
58647;SDS011;45992;45.920;20.074;2023-02-01T07:12:18;29.40;;;21.40;;
58647;SDS011;45992;45.920;20.074;2023-02-01T07:14:44;30.77;;;19.48;;
58647;SDS011;45992;45.920;20.074;2023-02-01T07:17:11;32.05;;;21.52;;
58647;SDS011;45992;45.920;20.074;2023-02-01T07:19:37;32.35;;;22.77;;
58647;SDS011;45992;45.920;20.074;2023-02-01T07:22:15;25.13;;;18.42;;
58647;SDS011;45992;45.920;20.074;2023-02-01T07:24:42;18.20;;;12.40;;
58647;SDS011;45992;45.920;20.074;2023-02-01T07:27:08;21.40;;;13.18;;
58647;SDS011;45992;45.920;20.074;2023-02-01T07:29:34;17.48;;;10.93;;
58647;SDS011;45992;45.920;20.074;2023-02-01T07:32:00;16.88;;;10.57;;
58647;SDS011;45992;45.920;20.074;2023-02-01T07:34:27;16.55;;;10.98;;
58647;SDS011;45992;45.920;20.074;2023-02-01T07:36:55;16.10;;;9.68;;
58647;SDS011;45992;45.920;20.074;2023-02-01T07:39:21;16.23;;;10.50;;
58647;SDS011;45992;45.920;20.074;2023-02-01T07:41:48;18.40;;;11.23;;
58647;SDS011;45992;45.920;20.074;2023-02-01T07:44:14;19.70;;;12.95;;
58647;SDS011;45992;45.920;20.074;2023-02-01T07:46:41;19.55;;;11.88;;
58647;SDS011;45992;45.920;20.074;2023-02-01T07:49:08;17.63;;;11.30;;
58647;SDS011;45992;45.920;20.074;2023-02-01T07:51:34;23.58;;;14.27;;
58647;SDS011;45992;45.920;20.074;2023-02-01T07:54:00;24.33;;;15.13;;
58647;SDS011;45992;45.920;20.074;2023-02-01T07:56:26;20.63;;;14.75;;
58647;SDS011;45992;45.920;20.074;2023-02-01T07:58:53;23.27;;;15.32;;
58647;SDS011;45992;45.920;20.074;2023-02-01T08:01:22;23.05;;;15.50;;
58647;SDS011;45992;45.920;20.074;2023-02-01T08:03:50;22.23;;;15.63;;
58647;SDS011;45992;45.920;20.074;2023-02-01T08:06:17;25.40;;;15.40;;
58647;SDS011;45992;45.920;20.074;2023-02-01T08:08:45;21.08;;;13.25;;
58647;SDS011;45992;45.920;20.074;2023-02-01T08:11:11;18.73;;;12.30;;
58647;SDS011;45992;45.920;20.074;2023-02-01T08:13:38;17.98;;;13.88;;
58647;SDS011;45992;45.920;20.074;2023-02-01T08:16:05;17.10;;;13.40;;
58647;SDS011;45992;45.920;20.074;2023-02-01T08:18:32;17.77;;;12.60;;
58647;SDS011;45992;45.920;20.074;2023-02-01T08:21:05;17.65;;;12.45;;
58647;SDS011;45992;45.920;20.074;2023-02-01T08:23:32;14.52;;;10.07;;
58647;SDS011;45992;45.920;20.074;2023-02-01T08:26:06;15.80;;;9.80;;
58647;SDS011;45992;45.920;20.074;2023-02-01T08:28:33;14.63;;;9.77;;
58647;SDS011;45992;45.920;20.074;2023-02-01T08:33:25;18.35;;;11.10;;
58647;SDS011;45992;45.920;20.074;2023-02-01T08:35:51;12.73;;;7.78;;
58647;SDS011;45992;45.920;20.074;2023-02-01T08:38:17;12.38;;;7.80;;
58647;SDS011;45992;45.920;20.074;2023-02-01T08:43:11;10.95;;;7.32;;
58647;SDS011;45992;45.920;20.074;2023-02-01T08:45:37;13.73;;;9.02;;
58647;SDS011;45992;45.920;20.074;2023-02-01T08:48:03;9.90;;;5.95;;
58647;SDS011;45992;45.920;20.074;2023-02-01T08:50:29;14.52;;;10.13;;
58647;SDS011;45992;45.920;20.074;2023-02-01T08:52:56;12.82;;;8.60;;
58647;SDS011;45992;45.920;20.074;2023-02-01T08:55:22;17.88;;;10.95;;
58647;SDS011;45992;45.920;20.074;2023-02-01T08:57:48;16.80;;;7.55;;
58647;SDS011;45992;45.920;20.074;2023-02-01T09:00:15;15.35;;;8.45;;
58647;SDS011;45992;45.920;20.074;2023-02-01T09:02:41;10.80;;;7.50;;
58647;SDS011;45992;45.920;20.074;2023-02-01T09:05:08;10.23;;;6.53;;
58647;SDS011;45992;45.920;20.074;2023-02-01T09:07:35;13.90;;;7.38;;
58647;SDS011;45992;45.920;20.074;2023-02-01T09:10:02;12.75;;;6.75;;
58647;SDS011;45992;45.920;20.074;2023-02-01T09:12:29;12.45;;;7.22;;
58647;SDS011;45992;45.920;20.074;2023-02-01T09:14:56;12.13;;;7.38;;
58647;SDS011;45992;45.920;20.074;2023-02-01T09:17:25;12.70;;;7.78;;
58647;SDS011;45992;45.920;20.074;2023-02-01T09:19:51;12.88;;;6.75;;
58647;SDS011;45992;45.920;20.074;2023-02-01T09:22:17;11.57;;;6.18;;
58647;SDS011;45992;45.920;20.074;2023-02-01T09:24:43;14.30;;;7.03;;
58647;SDS011;45992;45.920;20.074;2023-02-01T09:27:10;8.88;;;4.88;;
58647;SDS011;45992;45.920;20.074;2023-02-01T09:29:36;14.70;;;5.97;;
58647;SDS011;45992;45.920;20.074;2023-02-01T09:32:02;10.82;;;5.10;;
58647;SDS011;45992;45.920;20.074;2023-02-01T09:34:30;12.18;;;6.32;;
58647;SDS011;45992;45.920;20.074;2023-02-01T09:36:56;17.60;;;7.57;;
58647;SDS011;45992;45.920;20.074;2023-02-01T09:39:22;13.05;;;6.90;;
58647;SDS011;45992;45.920;20.074;2023-02-01T09:44:26;11.80;;;5.47;;
58647;SDS011;45992;45.920;20.074;2023-02-01T09:46:57;16.92;;;7.68;;
58647;SDS011;45992;45.920;20.074;2023-02-01T09:49:28;18.30;;;10.95;;
58647;SDS011;45992;45.920;20.074;2023-02-01T09:51:55;15.50;;;8.32;;
58647;SDS011;45992;45.920;20.074;2023-02-01T09:59:26;13.55;;;7.53;;
58647;SDS011;45992;45.920;20.074;2023-02-01T10:01:58;24.10;;;13.73;;
58647;SDS011;45992;45.920;20.074;2023-02-01T10:04:25;31.40;;;17.90;;
58647;SDS011;45992;45.920;20.074;2023-02-01T10:07:02;30.70;;;17.95;;
58647;SDS011;45992;45.920;20.074;2023-02-01T10:09:44;23.83;;;13.43;;
58647;SDS011;45992;45.920;20.074;2023-02-01T10:23:34;33.38;;;18.95;;
58647;SDS011;45992;45.920;20.074;2023-02-01T10:28:33;24.70;;;14.25;;
58647;SDS011;45992;45.920;20.074;2023-02-01T10:31:00;30.23;;;17.48;;
58647;SDS011;45992;45.920;20.074;2023-02-01T10:35:54;24.95;;;13.40;;
58647;SDS011;45992;45.920;20.074;2023-02-01T10:38:24;30.08;;;17.05;;
58647;SDS011;45992;45.920;20.074;2023-02-01T10:40:55;23.65;;;15.20;;
58647;SDS011;45992;45.920;20.074;2023-02-01T10:43:22;25.77;;;15.77;;
58647;SDS011;45992;45.920;20.074;2023-02-01T10:45:48;28.63;;;17.42;;
58647;SDS011;45992;45.920;20.074;2023-02-01T10:48:14;41.08;;;24.98;;
58647;SDS011;45992;45.920;20.074;2023-02-01T10:55:52;29.15;;;17.13;;
58647;SDS011;45992;45.920;20.074;2023-02-01T10:58:20;28.58;;;19.23;;
58647;SDS011;45992;45.920;20.074;2023-02-01T11:03:20;29.83;;;17.70;;
58647;SDS011;45992;45.920;20.074;2023-02-01T11:05:47;27.38;;;16.88;;
58647;SDS011;45992;45.920;20.074;2023-02-01T11:08:16;28.50;;;17.25;;
58647;SDS011;45992;45.920;20.074;2023-02-01T11:10:43;25.48;;;15.15;;
58647;SDS011;45992;45.920;20.074;2023-02-01T11:13:14;25.08;;;14.27;;
58647;SDS011;45992;45.920;20.074;2023-02-01T11:15:46;26.83;;;15.57;;
58647;SDS011;45992;45.920;20.074;2023-02-01T11:18:17;20.70;;;12.45;;
58647;SDS011;45992;45.920;20.074;2023-02-01T11:20:43;18.92;;;11.88;;
58647;SDS011;45992;45.920;20.074;2023-02-01T11:23:18;20.70;;;13.35;;
58647;SDS011;45992;45.920;20.074;2023-02-01T11:25:53;21.58;;;13.18;;
58647;SDS011;45992;45.920;20.074;2023-02-01T11:28:20;16.17;;;10.52;;
58647;SDS011;45992;45.920;20.074;2023-02-01T11:30:47;20.50;;;11.70;;
58647;SDS011;45992;45.920;20.074;2023-02-01T11:33:15;19.77;;;13.48;;
58647;SDS011;45992;45.920;20.074;2023-02-01T11:35:42;28.40;;;15.02;;
58647;SDS011;45992;45.920;20.074;2023-02-01T11:41:13;20.98;;;12.02;;
58647;SDS011;45992;45.920;20.074;2023-02-01T11:44:41;22.55;;;12.30;;
58647;SDS011;45992;45.920;20.074;2023-02-01T11:46:36;22.20;;;11.57;;
58647;SDS011;45992;45.920;20.074;2023-02-01T11:51:35;24.33;;;13.85;;
58647;SDS011;45992;45.920;20.074;2023-02-01T11:54:09;28.70;;;16.77;;
58647;SDS011;45992;45.920;20.074;2023-02-01T11:56:37;22.88;;;15.18;;
58647;SDS011;45992;45.920;20.074;2023-02-01T12:06:38;23.63;;;14.93;;
58647;SDS011;45992;45.920;20.074;2023-02-01T12:25:14;17.92;;;10.75;;
58647;SDS011;45992;45.920;20.074;2023-02-01T12:27:50;14.88;;;9.25;;
58647;SDS011;45992;45.920;20.074;2023-02-01T12:30:37;20.17;;;11.10;;
58647;SDS011;45992;45.920;20.074;2023-02-01T12:43:12;27.70;;;14.68;;
58647;SDS011;45992;45.920;20.074;2023-02-01T12:45:48;17.65;;;10.73;;
58647;SDS011;45992;45.920;20.074;2023-02-01T12:50:52;16.35;;;11.40;;
58647;SDS011;45992;45.920;20.074;2023-02-01T12:53:21;17.40;;;10.90;;
58647;SDS011;45992;45.920;20.074;2023-02-01T12:55:50;17.77;;;10.93;;
58647;SDS011;45992;45.920;20.074;2023-02-01T12:58:22;18.00;;;9.20;;
58647;SDS011;45992;45.920;20.074;2023-02-01T13:06:47;22.40;;;11.30;;
58647;SDS011;45992;45.920;20.074;2023-02-01T13:08:50;16.33;;;10.68;;
58647;SDS011;45992;45.920;20.074;2023-02-01T13:11:20;14.73;;;8.85;;
58647;SDS011;45992;45.920;20.074;2023-02-01T13:14:02;14.07;;;8.35;;
58647;SDS011;45992;45.920;20.074;2023-02-01T13:16:34;13.95;;;8.90;;
58647;SDS011;45992;45.920;20.074;2023-02-01T13:21:45;18.20;;;11.82;;
58647;SDS011;45992;45.920;20.074;2023-02-01T13:24:19;21.42;;;11.45;;
58647;SDS011;45992;45.920;20.074;2023-02-01T13:26:47;17.98;;;11.57;;
58647;SDS011;45992;45.920;20.074;2023-02-01T13:29:13;18.80;;;11.50;;
58647;SDS011;45992;45.920;20.074;2023-02-01T13:34:26;18.48;;;11.73;;
58647;SDS011;45992;45.920;20.074;2023-02-01T13:39:55;22.08;;;15.77;;
58647;SDS011;45992;45.920;20.074;2023-02-01T13:42:26;27.35;;;16.45;;
58647;SDS011;45992;45.920;20.074;2023-02-01T13:45:04;24.50;;;14.60;;
58647;SDS011;45992;45.920;20.074;2023-02-01T13:47:32;21.95;;;12.55;;
58647;SDS011;45992;45.920;20.074;2023-02-01T13:50:01;21.77;;;14.32;;
58647;SDS011;45992;45.920;20.074;2023-02-01T13:52:38;21.67;;;13.82;;
58647;SDS011;45992;45.920;20.074;2023-02-01T13:55:26;23.02;;;12.95;;
58647;SDS011;45992;45.920;20.074;2023-02-01T13:57:52;25.15;;;15.40;;
58647;SDS011;45992;45.920;20.074;2023-02-01T14:00:29;26.02;;;15.68;;
58647;SDS011;45992;45.920;20.074;2023-02-01T14:15:39;55.35;;;30.50;;
58647;SDS011;45992;45.920;20.074;2023-02-01T14:23:55;83.88;;;44.95;;
58647;SDS011;45992;45.920;20.074;2023-02-01T14:29:01;36.88;;;24.70;;
58647;SDS011;45992;45.920;20.074;2023-02-01T14:31:33;31.77;;;19.45;;
58647;SDS011;45992;45.920;20.074;2023-02-01T14:34:01;27.38;;;18.13;;
58647;SDS011;45992;45.920;20.074;2023-02-01T14:36:38;24.92;;;16.60;;
58647;SDS011;45992;45.920;20.074;2023-02-01T14:39:16;25.27;;;16.73;;
58647;SDS011;45992;45.920;20.074;2023-02-01T14:41:44;27.10;;;16.58;;
58647;SDS011;45992;45.920;20.074;2023-02-01T14:49:05;31.95;;;21.25;;
58647;SDS011;45992;45.920;20.074;2023-02-01T14:51:31;30.25;;;19.85;;
58647;SDS011;45992;45.920;20.074;2023-02-01T14:53:58;42.30;;;27.30;;
58647;SDS011;45992;45.920;20.074;2023-02-01T14:56:24;49.10;;;31.05;;
58647;SDS011;45992;45.920;20.074;2023-02-01T15:01:28;76.78;;;49.03;;
58647;SDS011;45992;45.920;20.074;2023-02-01T15:03:56;83.22;;;52.92;;
58647;SDS011;45992;45.920;20.074;2023-02-01T15:08:52;75.03;;;47.75;;
58647;SDS011;45992;45.920;20.074;2023-02-01T15:11:19;86.57;;;50.53;;
58647;SDS011;45992;45.920;20.074;2023-02-01T15:13:49;179.15;;;85.68;;
58647;SDS011;45992;45.920;20.074;2023-02-01T15:16:18;115.55;;;58.83;;
58647;SDS011;45992;45.920;20.074;2023-02-01T15:18:44;98.53;;;51.42;;
58647;SDS011;45992;45.920;20.074;2023-02-01T15:21:21;63.33;;;36.42;;
58647;SDS011;45992;45.920;20.074;2023-02-01T15:23:47;52.20;;;29.73;;
58647;SDS011;45992;45.920;20.074;2023-02-01T15:26:25;50.00;;;28.67;;
58647;SDS011;45992;45.920;20.074;2023-02-01T15:28:51;108.65;;;54.38;;
58647;SDS011;45992;45.920;20.074;2023-02-01T15:31:30;156.07;;;75.78;;
58647;SDS011;45992;45.920;20.074;2023-02-01T15:33:57;115.55;;;57.17;;
58647;SDS011;45992;45.920;20.074;2023-02-01T15:36:23;119.40;;;53.80;;
58647;SDS011;45992;45.920;20.074;2023-02-01T15:39:11;115.28;;;61.40;;
58647;SDS011;45992;45.920;20.074;2023-02-01T15:41:37;85.72;;;51.58;;
58647;SDS011;45992;45.920;20.074;2023-02-01T15:44:07;89.80;;;57.30;;
58647;SDS011;45992;45.920;20.074;2023-02-01T15:46:39;58.17;;;38.85;;
58647;SDS011;45992;45.920;20.074;2023-02-01T15:51:48;30.95;;;20.85;;
58647;SDS011;45992;45.920;20.074;2023-02-01T15:54:17;30.25;;;21.70;;
58647;SDS011;45992;45.920;20.074;2023-02-01T15:56:48;23.25;;;15.15;;
58647;SDS011;45992;45.920;20.074;2023-02-01T15:59:18;16.85;;;10.73;;
58647;SDS011;45992;45.920;20.074;2023-02-01T16:01:45;22.95;;;12.23;;
58647;SDS011;45992;45.920;20.074;2023-02-01T16:06:38;27.50;;;13.93;;
58647;SDS011;45992;45.920;20.074;2023-02-01T16:09:11;20.70;;;11.00;;
58647;SDS011;45992;45.920;20.074;2023-02-01T16:11:42;18.23;;;10.52;;
58647;SDS011;45992;45.920;20.074;2023-02-01T16:14:12;28.35;;;15.20;;
58647;SDS011;45992;45.920;20.074;2023-02-01T16:16:39;20.05;;;10.73;;
58647;SDS011;45992;45.920;20.074;2023-02-01T16:19:05;19.58;;;9.45;;
58647;SDS011;45992;45.920;20.074;2023-02-01T16:21:31;24.60;;;13.70;;
58647;SDS011;45992;45.920;20.074;2023-02-01T16:23:57;29.60;;;15.18;;
58647;SDS011;45992;45.920;20.074;2023-02-01T16:26:28;26.40;;;14.02;;
58647;SDS011;45992;45.920;20.074;2023-02-01T16:31:23;20.50;;;12.15;;
58647;SDS011;45992;45.920;20.074;2023-02-01T16:33:50;19.08;;;11.35;;
58647;SDS011;45992;45.920;20.074;2023-02-01T16:36:17;25.80;;;14.63;;
58647;SDS011;45992;45.920;20.074;2023-02-01T16:41:14;22.90;;;13.32;;
58647;SDS011;45992;45.920;20.074;2023-02-01T16:43:41;25.60;;;13.68;;
58647;SDS011;45992;45.920;20.074;2023-02-01T16:46:12;22.77;;;13.77;;
58647;SDS011;45992;45.920;20.074;2023-02-01T16:48:38;25.13;;;15.15;;
58647;SDS011;45992;45.920;20.074;2023-02-01T16:51:10;25.80;;;14.98;;
58647;SDS011;45992;45.920;20.074;2023-02-01T16:53:36;26.42;;;16.30;;
58647;SDS011;45992;45.920;20.074;2023-02-01T16:56:12;26.02;;;16.10;;
58647;SDS011;45992;45.920;20.074;2023-02-01T16:58:40;30.40;;;17.50;;
58647;SDS011;45992;45.920;20.074;2023-02-01T17:01:08;29.95;;;16.85;;
58647;SDS011;45992;45.920;20.074;2023-02-01T17:03:34;30.02;;;17.17;;
58647;SDS011;45992;45.920;20.074;2023-02-01T17:06:01;32.72;;;17.45;;
58647;SDS011;45992;45.920;20.074;2023-02-01T17:08:29;44.45;;;23.10;;
58647;SDS011;45992;45.920;20.074;2023-02-01T17:10:55;32.35;;;19.13;;
58647;SDS011;45992;45.920;20.074;2023-02-01T17:13:21;24.75;;;15.70;;
58647;SDS011;45992;45.920;20.074;2023-02-01T17:15:49;30.55;;;18.73;;
58647;SDS011;45992;45.920;20.074;2023-02-01T17:18:16;33.80;;;19.20;;